Time;durP1;ratioP1;P1;durP2;ratioP2;P2;SDS_P1;SDS_P2;PMS_P1;PMS_P2;Temp;Humidity;BMP_temperature;BMP_pressure;BME280_temperature;BME280_humidity;BME280_pressure;Samples;Min_cycle;Max_cycle;Signal;HPM_P1;HPM_P2
2023/10/02 00:01:25;;;;;;;16.65;8.57;;;;;;;15.62;100.00;64606.78;5072021;28;20228;-55
2023/10/02 00:04:16;;;;;;;9.57;8.25;;;;;;;15.63;100.00;64607.91;5071842;28;20742;-53
2023/10/02 00:06:37;;;;;;;12.93;9.27;;;;;;;15.61;100.00;64605.13;5071789;28;20225;-53
2023/10/02 00:09:04;;;;;;;12.40;7.93;;;;;;;15.61;100.00;64605.13;5071910;28;20193;-54
2023/10/02 00:11:37;;;;;;;13.10;8.00;;;;;;;15.68;100.00;64612.81;5071596;28;20824;-54
2023/10/02 00:14:25;;;;;;;13.18;8.70;;;;;;;15.68;100.00;64612.81;5071573;28;20240;-54
2023/10/02 00:17:00;;;;;;;9.82;7.88;;;;;;;15.68;100.00;64607.75;5072031;28;20260;-54
2023/10/02 00:19:47;;;;;;;15.52;7.85;;;;;;;15.64;100.00;64608.44;5071758;28;20261;-56
2023/10/02 00:25:00;;;;;;;14.38;7.55;;;;;;;15.54;100.00;64594.88;5071957;28;20207;-53
2023/10/02 00:27:28;;;;;;;10.95;6.75;;;;;;;15.55;100.00;64598.53;5077552;22;20220;-55
2023/10/02 00:29:58;;;;;;;10.25;7.25;;;;;;;15.51;100.00;64591.59;5071490;28;20201;-54
2023/10/02 00:32:26;;;;;;;9.88;7.22;;;;;;;15.53;100.00;64591.25;5071525;28;20208;-53
2023/10/02 00:34:53;;;;;;;12.20;7.15;;;;;;;15.50;100.00;64593.59;5071423;28;20192;-55
2023/10/02 00:37:19;;;;;;;9.75;7.00;;;;;;;15.48;100.00;64590.84;5071812;28;20212;-51
2023/10/02 00:39:48;;;;;;;10.43;6.80;;;;;;;15.49;100.00;64589.97;5071390;28;20201;-52
2023/10/02 00:45:01;;;;;;;10.70;6.55;;;;;;;15.57;100.00;64601.28;5071705;28;20346;-52
2023/10/02 00:47:41;;;;;;;8.93;6.05;;;;;;;15.49;100.00;64591.94;5071572;28;20325;-52
2023/10/02 00:50:10;;;;;;;11.00;6.13;;;;;;;15.48;100.00;64588.84;5071294;28;20234;-52
2023/10/02 00:52:41;;;;;;;12.23;6.50;;;;;;;15.45;99.67;64585.00;5077161;22;20244;-52
2023/10/02 00:55:12;;;;;;;7.93;5.30;;;;;;;15.49;99.90;64589.41;5071205;28;20703;-52
2023/10/02 00:57:40;;;;;;;8.32;5.80;;;;;;;15.46;100.00;64588.63;5071093;28;20208;-52
2023/10/02 01:00:16;;;;;;;7.43;5.72;;;;;;;15.40;99.78;64582.56;5071001;28;20217;-53
2023/10/02 01:02:46;;;;;;;11.25;5.55;;;;;;;15.44;99.03;64586.97;5071239;28;20232;-51
2023/10/02 01:05:16;;;;;;;6.80;5.32;;;;;;;15.41;98.72;64583.66;5070992;28;20192;-53
2023/10/02 01:07:44;;;;;;;10.45;6.40;;;;;;;15.48;98.76;64591.38;5071379;28;20751;-52
2023/10/02 01:10:19;;;;;;;9.88;5.97;;;;;;;15.45;98.10;64587.53;5071188;28;20251;-52
2023/10/02 01:13:01;;;;;;;8.30;5.72;;;;;;;15.47;97.37;64589.75;5071314;28;20227;-53
2023/10/02 01:15:28;;;;;;;9.75;5.45;;;;;;;15.43;97.29;64587.88;5071158;28;20189;-52
2023/10/02 01:20:40;;;;;;;7.18;5.55;;;;;;;15.48;96.90;64585.75;5070715;28;20243;-51
2023/10/02 01:23:16;;;;;;;11.88;5.72;;;;;;;15.45;96.16;64585.00;5052904;28;20212;-53
2023/10/02 01:25:44;;;;;;;6.65;5.30;;;;;;;15.47;95.93;64589.75;5070818;28;20172;-53
2023/10/02 01:28:16;;;;;;;10.02;5.38;;;;;;;15.44;95.78;64586.44;5070593;28;20205;-52
2023/10/02 01:30:47;;;;;;;8.77;5.72;;;;;;;15.46;95.64;64583.56;5069321;28;20689;-52
2023/10/02 01:33:26;;;;;;;7.95;5.97;;;;;;;15.50;95.23;64590.50;5070605;28;20209;-52
2023/10/02 01:35:56;;;;;;;7.72;5.13;;;;;;;15.44;95.86;64583.88;5069412;28;20197;-52
2023/10/02 01:38:30;;;;;;;7.43;5.78;;;;;;;15.44;95.25;64586.44;5070627;28;20219;-55
2023/10/02 01:41:08;;;;;;;11.27;5.00;;;;;;;15.33;95.95;64571.78;5070678;28;20303;-54
2023/10/02 01:43:45;;;;;;;8.20;5.32;;;;;;;15.32;95.64;64573.22;5070377;28;20197;-53
2023/10/02 01:46:17;;;;;;;6.57;4.80;;;;;;;15.24;95.63;64559.34;5070743;28;20249;-54
2023/10/02 01:48:44;;;;;;;8.40;5.07;;;;;;;15.30;95.31;64571.00;5069150;28;20193;-54
2023/10/02 01:53:51;;;;;;;8.25;5.97;;;;;;;15.19;96.09;64558.94;5070417;28;20245;-54
2023/10/02 01:56:18;;;;;;;7.50;5.60;;;;;;;15.05;95.90;64544.63;5070201;28;20266;-53
2023/10/02 01:58:50;;;;;;;8.65;5.40;;;;;;;15.09;96.06;64546.47;5070413;28;20196;-52
2023/10/02 02:01:20;;;;;;;11.13;5.45;;;;;;;15.14;96.10;64548.91;5070424;28;20228;-54
2023/10/02 02:03:50;;;;;;;9.88;5.10;;;;;;;15.02;96.89;64541.34;5070385;28;20298;-54
2023/10/02 02:06:22;;;;;;;8.45;5.15;;;;;;;15.00;96.88;64539.13;5070218;28;20651;-55
2023/10/02 02:08:52;;;;;;;7.93;4.88;;;;;;;14.99;96.53;64537.47;5070177;28;20694;-55
2023/10/02 02:11:23;;;;;;;8.07;4.93;;;;;;;15.00;96.41;64539.13;5070029;28;20205;-52
2023/10/02 02:13:51;;;;;;;9.02;5.40;;;;;;;15.02;96.65;64538.78;5070384;28;20200;-54
2023/10/02 02:16:30;;;;;;;8.32;5.50;;;;;;;14.99;96.92;64534.94;5070151;28;20204;-55
2023/10/02 02:18:58;;;;;;;7.93;5.63;;;;;;;14.90;96.59;64527.59;5068880;28;20733;-55
2023/10/02 02:21:24;;;;;;;8.68;5.45;;;;;;;14.98;96.19;64533.84;5069921;28;20292;-52
2023/10/02 02:24:03;;;;;;;10.13;5.22;;;;;;;14.89;96.77;64523.94;5068821;28;20208;-52
2023/10/02 02:26:36;;;;;;;14.27;5.85;;;;;;;14.91;96.29;64526.69;5070031;28;20712;-52
2023/10/02 02:29:02;;;;;;;7.82;5.45;;;;;;;14.89;94.29;64523.94;5070129;28;20338;-52
2023/10/02 02:31:32;;;;;;;11.32;4.90;;;;;;;14.91;93.92;64526.69;5069971;28;20209;-56
2023/10/02 02:34:14;;;;;;;9.95;4.88;;;;;;;14.93;92.84;64530.88;5070054;28;20686;-55
2023/10/02 02:36:42;;;;;;;6.60;4.28;;;;;;;14.87;92.07;64521.75;5068889;28;20258;-54
2023/10/02 02:39:15;;;;;;;6.85;4.63;;;;;;;14.81;91.58;64518.25;5072237;28;20205;-54
2023/10/02 02:44:46;;;;;;;7.40;4.20;;;;;;;14.75;88.49;64511.66;5073541;28;20196;-57
2023/10/02 02:47:13;;;;;;;8.70;4.65;;;;;;;14.76;87.86;64509.66;5073741;28;20212;-54
2023/10/02 02:49:51;;;;;;;9.25;4.55;;;;;;;14.79;87.48;64515.50;5073058;28;20205;-55
2023/10/02 02:52:32;;;;;;;6.03;4.50;;;;;;;14.70;85.49;64505.59;5073157;28;20213;-56
2023/10/02 02:55:12;;;;;;;6.85;3.63;;;;;;;14.76;85.65;64512.19;5073239;28;20193;-54
2023/10/02 02:57:39;;;;;;;6.03;4.50;;;;;;;14.67;86.49;64502.28;5073520;28;20248;-54
2023/10/02 03:02:54;;;;;;;5.28;3.75;;;;;;;14.58;84.76;64492.97;5073480;28;20594;-53
2023/10/02 03:05:22;;;;;;;5.15;3.55;;;;;;;14.57;85.32;64488.78;5072360;28;20682;-52
2023/10/02 03:07:49;;;;;;;5.60;3.92;;;;;;;14.51;85.63;64484.72;5072029;28;20274;-55
2023/10/02 03:10:18;;;;;;;7.32;4.20;;;;;;;14.47;86.19;64478.34;5071987;28;20204;-55
2023/10/02 03:12:45;;;;;;;8.65;4.43;;;;;;;14.45;85.71;64478.13;5071935;28;20223;-56
2023/10/02 03:15:17;;;;;;;6.90;4.55;;;;;;;14.45;85.56;64478.13;5072620;28;20196;-55
2023/10/02 03:17:44;;;;;;;5.75;3.67;;;;;;;14.42;86.36;64472.84;5072541;28;20261;-55
2023/10/02 03:20:23;;;;;;;6.35;3.50;;;;;;;14.50;85.62;64483.63;5071459;28;20212;-55
2023/10/02 03:22:53;;;;;;;8.00;4.30;;;;;;;14.54;85.54;64488.56;5072609;28;20304;-54
2023/10/02 03:25:26;;;;;;;6.55;3.65;;;;;;;14.45;85.75;64480.66;5072856;28;20197;-52
2023/10/02 03:27:54;;;;;;;13.07;4.60;;;;;;;14.40;86.23;64470.66;5072753;28;20240;-51
2023/10/02 03:30:35;;;;;;;12.23;4.38;;;;;;;14.45;84.38;64475.59;5071694;28;20197;-57
2023/10/02 03:33:03;;;;;;;7.83;3.87;;;;;;;14.36;84.46;64463.72;5072688;28;20308;-51
2023/10/02 03:35:39;;;;;;;7.20;4.28;;;;;;;14.35;83.84;64467.69;5072213;28;20688;-52
2023/10/02 03:38:05;;;;;;;7.28;3.83;;;;;;;14.42;82.66;64475.38;5072488;28;20627;-53
2023/10/02 03:40:31;;;;;;;9.52;3.78;;;;;;;14.32;83.36;64464.41;5072225;28;20204;-51
2023/10/02 03:43:18;;;;;;;6.25;3.75;;;;;;;14.34;82.06;64464.06;5072358;28;20212;-52
2023/10/02 03:45:44;;;;;;;9.50;4.00;;;;;;;14.39;81.92;64472.09;5071988;28;20217;-52
2023/10/02 03:48:10;;;;;;;8.35;4.25;;;;;;;14.36;81.29;64468.78;5072179;28;20631;-52
2023/10/02 03:50:37;;;;;;;9.68;4.03;;;;;;;14.35;79.16;64467.13;5071114;28;20196;-52
2023/10/02 03:53:12;;;;;;;8.32;4.22;;;;;;;14.47;78.76;64478.34;5072114;28;20212;-52
2023/10/02 03:55:39;;;;;;;5.50;4.00;;;;;;;14.45;78.52;64478.69;5072165;28;20283;-51
2023/10/02 03:58:06;;;;;;;9.38;3.80;;;;;;;14.39;78.24;64469.00;5077871;22;20232;-52
2023/10/02 04:00:43;;;;;;;7.47;3.50;;;;;;;14.35;76.71;64464.59;5071890;28;20204;-54
2023/10/02 04:03:08;;;;;;;6.18;3.08;;;;;;;14.44;76.52;64475.06;5071948;28;20213;-53
2023/10/02 04:05:43;;;;;;;6.57;3.97;;;;;;;14.39;75.93;64469.53;5070562;28;20208;-51
2023/10/02 04:08:14;;;;;;;7.03;3.53;;;;;;;14.42;76.52;64470.31;5072147;28;20236;-52
2023/10/02 04:10:56;;;;;;;7.20;3.45;;;;;;;14.40;76.43;64470.09;5071895;28;20269;-53
2023/10/02 04:13:27;;;;;;;6.50;3.72;;;;;;;14.36;76.06;64468.25;5071790;28;20205;-53
2023/10/02 04:18:46;;;;;;;6.15;3.58;;;;;;;14.45;75.29;64478.69;5072048;28;20301;-52
2023/10/02 04:21:19;;;;;;;5.40;3.55;;;;;;;14.38;75.29;64473.53;5071778;28;20689;-51
2023/10/02 04:23:45;;;;;;;8.70;3.55;;;;;;;14.36;75.38;64465.72;5071580;28;20715;-52
2023/10/02 04:26:19;;;;;;;5.80;3.20;;;;;;;14.37;74.51;64469.88;5071496;28;20282;-52
2023/10/02 04:29:09;;;;;;;8.85;3.28;;;;;;;14.41;74.67;64474.28;5071780;28;20227;-51
2023/10/02 04:31:35;;;;;;;7.80;3.15;;;;;;;14.34;74.58;64464.06;5070520;28;20212;-52
2023/10/02 04:34:15;;;;;;;7.57;3.42;;;;;;;14.37;74.18;64464.81;5071591;28;20589;-55
2023/10/02 04:36:42;;;;;;;6.47;3.83;;;;;;;14.32;74.53;64461.31;5071423;28;20212;-52
2023/10/02 04:42:12;;;;;;;11.30;3.92;;;;;;;14.40;74.02;64472.63;5071496;28;20274;-53
2023/10/02 04:44:46;;;;;;;6.18;3.85;;;;;;;14.40;74.18;64475.72;5069920;28;20196;-51
2023/10/02 04:47:20;;;;;;;6.70;4.25;;;;;;;14.36;74.08;64463.16;5069973;28;20706;-52
2023/10/02 04:52:53;;;;;;;6.15;3.53;;;;;;;14.33;74.75;64465.50;5070989;28;20211;-57
2023/10/02 04:55:23;;;;;;;6.82;3.78;;;;;;;14.30;75.52;64457.13;5070970;28;20280;-54
2023/10/02 04:57:54;;;;;;;7.97;3.83;;;;;;;14.37;75.95;64467.34;5071429;28;20228;-53
2023/10/02 05:01:23;;;;;;;7.28;4.10;;;;;;;14.24;76.10;64453.59;5070987;28;20295;-55
2023/10/02 05:03:17;;;;;;;12.07;3.60;;;;;;;14.20;76.04;64448.66;5070748;28;20719;-54
2023/10/02 05:05:49;;;;;;;6.97;3.47;;;;;;;14.16;76.05;64444.25;5069854;28;20641;-53
2023/10/02 05:08:19;;;;;;;8.45;3.38;;;;;;;14.22;74.84;64451.41;5071051;28;20291;-52
2023/10/02 05:11:05;;;;;;;7.07;3.13;;;;;;;14.23;75.58;64451.94;5071014;28;20192;-53
2023/10/02 05:16:18;;;;;;;12.93;4.75;;;;;;;14.20;75.64;64451.72;5071284;28;20345;-53
2023/10/02 05:18:47;;;;;;;20.70;4.40;;;;;;;14.19;75.32;64450.09;5069613;28;20234;-55
2023/10/02 05:21:17;;;;;;;8.88;4.00;;;;;;;14.15;75.96;64445.69;5070948;28;20277;-56
2023/10/02 05:24:00;;;;;;;11.38;4.00;;;;;;;14.20;75.29;64448.66;5069602;28;20212;-55
2023/10/02 05:26:32;;;;;;;7.22;3.78;;;;;;;14.23;74.36;64451.94;5069423;28;20691;-56
2023/10/02 05:28:59;;;;;;;7.93;3.15;;;;;;;14.26;73.80;64457.78;5069815;28;20185;-55
2023/10/02 05:31:26;;;;;;;10.48;3.63;;;;;;;14.22;74.19;64453.41;5069345;28;20216;-56
2023/10/02 05:33:52;;;;;;;6.10;3.50;;;;;;;14.27;73.95;64456.34;5070996;28;20314;-56
2023/10/02 05:36:21;;;;;;;5.23;3.10;;;;;;;14.24;73.96;64455.59;5070899;28;20673;-53
2023/10/02 05:39:24;;;;;;;5.65;3.50;;;;;;;14.27;73.50;64456.91;5070515;28;20196;-56
2023/10/02 05:41:44;;;;;;;3.65;2.38;;;;;;;14.38;73.51;64468.47;5070691;28;20228;-55
2023/10/02 05:44:23;;;;;;;8.02;3.67;;;;;;;14.94;84.76;64532.53;5070673;28;20197;-55
2023/10/02 05:47:07;;;;;;;5.40;3.17;;;;;;;15.42;75.70;64584.78;5069080;28;20239;-56
2023/10/02 05:49:36;;;;;;;7.60;3.28;;;;;;;14.90;74.73;64528.13;5067717;28;20586;-53
2023/10/02 05:52:03;;;;;;;9.15;3.55;;;;;;;14.81;74.76;64515.16;5068043;28;20223;-57
2023/10/02 05:54:29;;;;;;;5.93;3.80;;;;;;;14.61;76.29;64491.19;5070319;28;20212;-55
2023/10/02 05:57:14;;;;;;;5.97;3.53;;;;;;;14.51;75.60;64482.72;5069018;28;20216;-55
2023/10/02 05:59:48;;;;;;;8.15;3.60;;;;;;;14.35;76.36;64464.59;5069168;28;20209;-55
2023/10/02 06:02:19;;;;;;;5.55;3.30;;;;;;;14.39;75.78;64469.00;5070009;28;20208;-59
2023/10/02 06:04:47;;;;;;;8.13;3.45;;;;;;;14.40;75.83;64470.09;5069448;28;20216;-53
2023/10/02 06:10:07;;;;;;;6.07;3.00;;;;;;;14.47;74.23;64478.34;5070628;28;20295;-56
2023/10/02 06:12:42;;;;;;;9.73;3.42;;;;;;;14.54;74.67;64488.56;5069355;28;20287;-54
2023/10/02 06:15:09;;;;;;;6.00;3.83;;;;;;;15.46;100.00;64588.63;5073930;28;20279;-54
2023/10/02 06:17:36;;;;;;;6.28;3.90;;;;;;;17.08;100.00;64765.88;5073448;28;20215;-53
2023/10/02 06:20:05;;;;;;;4.72;2.88;;;;;;;16.22;69.03;64671.72;5073727;28;20266;-55
2023/10/02 06:22:31;;;;;;;7.63;3.40;;;;;;;15.52;70.64;64590.72;5073572;28;20228;-56
2023/10/02 06:24:58;;;;;;;4.75;2.92;;;;;;;15.35;71.71;64576.53;5072578;28;20224;-54
2023/10/02 06:27:25;;;;;;;5.45;2.97;;;;;;;15.14;72.57;64548.91;5072309;28;20212;-54
2023/10/02 06:29:52;;;;;;;7.82;3.70;;;;;;;14.95;73.76;64533.06;5072199;28;20196;-56
2023/10/02 06:32:22;;;;;;;5.88;3.08;;;;;;;15.02;73.00;64535.69;5073815;28;20270;-52
2023/10/02 06:34:51;;;;;;;9.85;3.65;;;;;;;14.97;73.83;64532.72;5073862;28;20254;-55
2023/10/02 06:37:19;;;;;;;5.55;3.67;;;;;;;15.00;73.20;64538.59;5073614;28;20292;-56
2023/10/02 06:40:13;;;;;;;6.13;3.10;;;;;;;14.86;72.28;64521.22;5072298;28;20232;-54
2023/10/02 06:42:49;;;;;;;10.20;3.63;;;;;;;14.86;72.29;64523.19;5071960;28;20231;-55
2023/10/02 06:45:20;;;;;;;8.43;3.20;;;;;;;14.83;72.51;64517.91;5073362;28;20251;-53
2023/10/02 06:47:48;;;;;;;5.30;2.75;;;;;;;14.86;72.56;64520.66;5072217;28;20217;-54
2023/10/02 06:52:53;;;;;;;9.10;3.60;;;;;;;15.12;71.51;64549.78;5073781;28;20242;-56
2023/10/02 06:55:19;;;;;;;4.72;2.88;;;;;;;15.23;71.57;64563.84;5055444;28;20205;-54
2023/10/02 06:57:52;;;;;;;6.57;2.90;;;;;;;15.27;71.09;64565.19;5073346;28;20205;-53
2023/10/02 07:00:23;;;;;;;6.40;4.00;;;;;;;15.37;70.75;64578.72;5073107;28;20691;-54
2023/10/02 07:02:58;;;;;;;6.30;3.63;;;;;;;15.29;71.62;64569.91;5071856;28;20218;-56
2023/10/02 07:05:32;;;;;;;7.72;3.08;;;;;;;15.31;70.54;64572.66;5073019;28;20236;-57
2023/10/02 07:08:26;;;;;;;10.32;3.58;;;;;;;15.35;70.55;64574.50;5073066;28;20283;-56
2023/10/02 07:10:53;;;;;;;7.95;3.05;;;;;;;15.19;70.41;64554.38;5072274;28;20216;-54
2023/10/02 07:13:20;;;;;;;7.75;3.67;;;;;;;15.19;71.75;64558.94;5072993;28;20204;-54
2023/10/02 07:15:57;;;;;;;6.30;3.28;;;;;;;15.18;70.77;64555.84;5073091;28;20204;-54
2023/10/02 07:18:45;;;;;;;4.80;3.20;;;;;;;15.19;71.42;64556.38;5072371;28;20270;-54
2023/10/02 07:21:11;;;;;;;10.13;4.13;;;;;;;15.29;71.43;64567.38;5072896;28;20303;-56
2023/10/02 07:23:37;;;;;;;7.32;3.17;;;;;;;15.19;70.42;64556.38;5071255;28;20262;-52
2023/10/02 07:26:49;;;;;;;8.63;3.38;;;;;;;15.12;71.43;64554.31;5072711;28;20642;-57
2023/10/02 07:29:08;;;;;;;8.70;3.95;;;;;;;15.11;70.99;64548.69;5072642;28;20200;-54
2023/10/02 07:31:34;;;;;;;8.75;3.75;;;;;;;15.20;71.42;64560.00;5072727;28;20213;-56
2023/10/02 07:34:01;;;;;;;7.18;3.50;;;;;;;15.42;71.56;64581.66;5072593;28;20201;-55
2023/10/02 07:36:27;;;;;;;7.38;3.88;;;;;;;15.43;70.35;64582.81;5072680;28;20242;-55
2023/10/02 07:38:54;;;;;;;6.68;3.55;;;;;;;15.45;70.31;64587.53;5072532;28;20205;-52
2023/10/02 07:41:24;;;;;;;5.50;3.25;;;;;;;15.64;70.64;64605.88;5072322;28;20209;-52
2023/10/02 07:43:54;;;;;;;8.20;3.65;;;;;;;15.91;70.64;64638.16;5071044;28;20254;-54
2023/10/02 07:46:23;;;;;;;7.03;3.72;;;;;;;15.95;68.66;64643.09;5072719;28;20209;-59
2023/10/02 07:48:57;;;;;;;7.03;3.33;;;;;;;15.88;69.18;64632.28;5072557;28;20218;-58
2023/10/02 07:51:35;;;;;;;7.00;3.03;;;;;;;16.08;68.54;64654.31;5072063;28;20205;-57
2023/10/02 07:54:02;;;;;;;9.60;4.03;;;;;;;16.16;67.89;64665.66;5070859;28;20239;-53
2023/10/02 07:56:29;;;;;;;6.70;3.95;;;;;;;16.14;67.91;64660.91;5072235;28;20243;-53
2023/10/02 07:58:55;;;;;;;8.98;3.72;;;;;;;16.32;67.10;64680.19;5072077;28;20231;-53
2023/10/02 08:01:27;;;;;;;9.52;3.65;;;;;;;16.47;65.86;64699.78;5070706;28;20328;-52
2023/10/02 08:03:55;;;;;;;9.98;3.58;;;;;;;16.61;65.11;64712.66;5072228;28;20556;-52
2023/10/02 08:06:22;;;;;;;8.40;3.85;;;;;;;16.70;64.87;64722.56;5071817;28;20209;-53
2023/10/02 08:11:50;;;;;;;7.30;3.30;;;;;;;16.57;65.03;64705.16;5072095;28;20243;-57
2023/10/02 08:17:18;;;;;;;7.68;3.72;;;;;;;16.45;65.74;64694.47;5072125;28;20208;-53
2023/10/02 08:19:59;;;;;;;5.95;3.47;;;;;;;16.72;65.14;64724.78;5071970;28;20258;-55
2023/10/02 08:22:46;;;;;;;7.53;3.65;;;;;;;17.06;64.74;64763.69;5071778;28;20699;-56
2023/10/02 08:25:13;;;;;;;9.80;4.40;;;;;;;17.24;64.04;64780.97;5071879;28;20192;-55
2023/10/02 08:27:58;;;;;;;10.40;4.30;;;;;;;17.15;62.44;64771.06;5072048;28;20208;-55
2023/10/02 08:30:27;;;;;;;10.43;4.20;;;;;;;17.45;62.47;64804.09;5071668;28;20196;-55
2023/10/02 08:33:19;;;;;;;5.07;3.40;;;;;;;17.75;61.86;64837.19;5071510;28;20225;-54
2023/10/02 08:35:46;;;;;;;12.27;4.57;;;;;;;17.79;61.60;64844.16;5070681;28;20709;-56
2023/10/02 08:38:21;;;;;;;6.68;3.78;;;;;;;17.90;59.91;64853.72;5071489;28;20243;-54
2023/10/02 08:40:57;;;;;;;7.45;3.67;;;;;;;17.67;59.83;64825.81;5070355;28;20212;-54
2023/10/02 08:43:27;;;;;;;8.85;3.55;;;;;;;17.62;58.92;64820.31;5072284;28;20196;-56
2023/10/02 08:45:53;;;;;;;10.18;5.97;;;;;;;18.08;59.59;64870.47;5071549;28;20205;-57
2023/10/02 08:48:25;;;;;;;9.00;3.53;;;;;;;17.99;58.49;64866.19;5070276;28;20698;-57
2023/10/02 08:50:57;;;;;;;7.18;4.10;;;;;;;17.88;59.58;64848.97;5071472;28;20284;-53
2023/10/02 08:53:23;;;;;;;6.90;3.75;;;;;;;18.04;58.84;64868.63;5071523;28;20674;-55
2023/10/02 08:56:22;;;;;;;7.25;3.75;;;;;;;18.29;58.79;64893.63;5071162;28;20193;-52
2023/10/02 09:01:33;;;;;;;9.25;3.78;;;;;;;18.58;55.47;64927.63;5071152;28;20318;-58
2023/10/02 09:07:20;;;;;;;10.13;5.50;;;;;;;19.02;54.72;64973.63;5048848;28;20706;-55
2023/10/02 09:09:54;;;;;;;8.65;4.30;;;;;;;19.28;54.15;65005.44;5070712;28;20205;-55
2023/10/02 09:12:48;;;;;;;9.52;3.80;;;;;;;19.16;52.45;64991.63;5072405;28;20212;-54
2023/10/02 09:15:35;;;;;;;9.13;4.03;;;;;;;19.25;52.11;64999.00;5070565;28;20265;-55
2023/10/02 09:19:07;;;;;;;9.07;4.10;;;;;;;18.99;54.15;64972.84;5072646;28;20212;-54
2023/10/02 09:21:14;;;;;;;10.10;3.92;;;;;;;19.23;52.26;64999.91;5072614;28;20232;-53
2023/10/02 09:23:53;;;;;;;11.27;6.60;;;;;;;19.54;52.30;65030.50;5069832;28;20211;-53
2023/10/02 09:26:24;;;;;;;10.93;4.70;;;;;;;19.71;52.26;65049.28;5071292;28;20221;-53
2023/10/02 09:29:00;;;;;;;11.80;4.25;;;;;;;19.38;51.47;65015.38;5070932;28;20193;-52
2023/10/02 09:31:30;;;;;;;8.20;4.22;;;;;;;20.00;67.05;65081.84;5071142;28;20216;-53
2023/10/02 09:34:10;;;;;;;6.60;4.10;;;;;;;20.41;50.30;65128.63;5069634;28;20646;-54
2023/10/02 09:36:36;;;;;;;9.05;3.92;;;;;;;20.59;48.90;65148.50;5069762;28;20274;-52
2023/10/02 09:41:56;;;;;;;6.00;3.72;;;;;;;19.86;48.01;65068.38;5069132;28;20669;-53
2023/10/02 09:44:27;;;;;;;10.38;4.20;;;;;;;20.07;48.09;65089.59;5069313;28;20208;-56
2023/10/02 09:46:53;;;;;;;11.35;4.13;;;;;;;20.31;47.38;65117.56;5068723;28;20212;-53
2023/10/02 09:49:30;;;;;;;8.63;4.00;;;;;;;20.24;46.31;65107.81;5071469;28;20250;-51
2023/10/02 09:52:15;;;;;;;6.72;3.85;;;;;;;20.04;46.47;65088.81;5075170;28;20212;-53
2023/10/02 09:55:03;;;;;;;6.38;4.03;;;;;;;20.32;45.26;65116.66;5072609;28;20197;-52
2023/10/02 09:57:36;;;;;;;10.55;4.18;;;;;;;20.04;46.13;65086.25;5074428;28;20213;-52
2023/10/02 10:00:33;;;;;;;8.00;3.90;;;;;;;20.44;46.19;65131.94;5074875;28;20189;-53
2023/10/02 10:03:22;;;;;;;6.50;3.95;;;;;;;20.68;44.82;65158.47;5073660;28;20220;-52
2023/10/02 10:06:06;;;;;;;11.30;4.03;;;;;;;20.67;43.22;65155.34;5072234;28;20184;-55
2023/10/02 10:09:18;;;;;;;8.40;4.25;;;;;;;20.30;43.42;65114.44;5072494;28;20215;-54
2023/10/02 10:11:39;;;;;;;6.18;3.90;;;;;;;20.29;44.17;65115.34;5072516;28;20224;-55
2023/10/02 10:14:36;;;;;;;6.00;4.18;;;;;;;21.11;43.39;65203.44;5071889;28;20220;-56
2023/10/02 10:17:03;;;;;;;8.38;4.20;;;;;;;21.05;42.89;65198.84;5072185;28;20266;-53
2023/10/02 10:19:32;;;;;;;7.57;4.45;;;;;;;20.84;41.80;65176.16;5073576;28;20209;-56
2023/10/02 10:22:00;;;;;;;6.47;4.03;;;;;;;21.33;41.44;65227.78;5072323;28;20212;-55
2023/10/02 10:24:56;;;;;;;8.55;4.22;;;;;;;21.46;40.94;65244.72;5073411;28;20228;-55
2023/10/02 10:27:40;;;;;;;7.10;3.67;;;;;;;21.48;39.89;65244.38;5074307;28;20208;-55
2023/10/02 10:30:39;;;;;;;9.73;3.70;;;;;;;21.41;39.63;65236.63;5072134;28;20207;-52
2023/10/02 10:35:51;;;;;;;11.82;6.90;;;;;;;21.32;41.94;65229.25;5073473;28;20211;-52
2023/10/02 10:41:00;;;;;;;7.63;4.63;;;;;;;21.85;40.12;65284.22;5073599;28;20216;-54
2023/10/02 10:46:17;;;;;;;6.30;4.47;;;;;;;21.99;39.96;65302.28;5073381;28;20681;-52
2023/10/02 10:48:47;;;;;;;7.47;4.13;;;;;;;21.63;40.84;65260.94;5073150;28;20227;-53
2023/10/02 10:51:21;;;;;;;9.27;4.63;;;;;;;21.87;40.80;65287.00;5073218;28;20322;-53
2023/10/02 10:54:00;;;;;;;12.32;4.60;;;;;;;21.77;39.96;65279.00;5073259;28;20200;-53
2023/10/02 10:56:27;;;;;;;11.25;5.03;;;;;;;22.27;40.43;65330.69;5073311;28;20208;-54
2023/10/02 10:59:10;;;;;;;8.05;4.80;;;;;;;22.67;39.70;65372.44;5072602;28;20197;-55
2023/10/02 11:01:37;;;;;;;10.00;4.60;;;;;;;23.26;39.97;65437.78;5073242;28;20208;-57
2023/10/02 11:04:04;;;;;;;7.03;4.65;;;;;;;22.48;39.06;65354.50;5073012;28;20283;-55
2023/10/02 11:06:30;;;;;;;7.55;4.78;;;;;;;22.41;39.28;65348.75;5073148;28;20215;-54
2023/10/02 11:09:12;;;;;;;10.45;5.03;;;;;;;22.73;39.09;65378.50;5071768;28;20686;-53
2023/10/02 11:11:51;;;;;;;8.05;4.45;;;;;;;22.48;38.88;65353.94;5071562;28;20216;-51
2023/10/02 11:14:24;;;;;;;9.35;5.95;;;;;;;22.19;39.98;65322.41;5072888;28;20193;-55
2023/10/02 11:16:51;;;;;;;7.85;4.00;;;;;;;21.68;40.40;65263.38;5071850;28;20220;-55
2023/10/02 11:22:21;;;;;;;7.82;5.05;;;;;;;22.02;43.08;65303.03;5072693;28;20247;-52
2023/10/02 11:24:53;;;;;;;8.02;5.13;;;;;;;22.22;41.29;65325.16;5071412;28;20208;-60
2023/10/02 11:27:19;;;;;;;8.35;4.47;;;;;;;23.03;41.06;65414.31;5071472;28;20218;-55
2023/10/02 11:30:08;;;;;;;11.70;5.72;;;;;;;23.74;39.85;65492.44;5072712;28;20289;-55
2023/10/02 11:32:54;;;;;;;7.82;4.95;;;;;;;23.89;40.27;65509.63;5072421;28;20207;-55
2023/10/02 11:35:46;;;;;;;7.88;4.32;;;;;;;23.61;37.65;65478.03;5072208;28;20204;-56
2023/10/02 11:38:11;;;;;;;9.02;6.30;;;;;;;23.43;38.73;65458.66;5072471;28;20263;-55
2023/10/02 11:40:38;;;;;;;10.82;4.40;;;;;;;23.07;39.63;65416.16;5071273;28;20212;-56
2023/10/02 11:43:03;;;;;;;9.20;5.60;;;;;;;23.35;39.94;65447.75;5072615;28;20220;-55
2023/10/02 11:45:32;;;;;;;7.97;4.60;;;;;;;23.66;38.61;65483.56;5072400;28;20193;-56
2023/10/02 11:47:58;;;;;;;11.25;7.03;;;;;;;23.08;39.63;65419.84;5071031;28;20605;-55
2023/10/02 11:50:23;;;;;;;8.02;5.32;;;;;;;22.70;40.38;65380.91;5072344;28;20670;-56
2023/10/02 11:52:50;;;;;;;8.85;5.20;;;;;;;22.68;41.01;65376.13;5072541;28;20248;-55
2023/10/02 11:55:19;;;;;;;7.65;4.30;;;;;;;23.13;40.19;65425.94;5072523;28;20196;-57
2023/10/02 11:57:51;;;;;;;10.65;5.97;;;;;;;23.20;40.75;65433.16;5072082;28;20213;-55
2023/10/02 12:00:24;;;;;;;9.48;4.47;;;;;;;23.13;39.80;65422.81;5072108;28;20275;-60
2023/10/02 12:02:50;;;;;;;34.33;21.52;;;;;;;23.55;40.49;65471.41;5072441;28;20204;-56
2023/10/02 12:05:22;;;;;;;7.30;4.40;;;;;;;22.97;39.79;65408.22;5072543;28;20193;-56
2023/10/02 12:07:48;;;;;;;7.90;4.55;;;;;;;22.75;40.62;65383.31;5070641;28;20259;-58
2023/10/02 12:10:15;;;;;;;7.45;4.15;;;;;;;22.42;41.16;65347.84;5071510;28;20197;-53
2023/10/02 12:12:45;;;;;;;6.13;4.72;;;;;;;22.33;41.62;65337.91;5070690;28;20228;-52
2023/10/02 12:15:14;;;;;;;12.57;4.78;;;;;;;22.56;41.41;65360.78;5070961;28;20646;-53
2023/10/02 12:17:40;;;;;;;9.60;6.25;;;;;;;22.60;41.09;65364.69;5072240;28;20193;-52
2023/10/02 12:20:10;;;;;;;9.27;5.00;;;;;;;22.76;41.06;65384.97;5071861;28;20205;-53
2023/10/02 12:22:37;;;;;;;7.07;4.32;;;;;;;23.46;40.71;65461.41;5071137;28;20200;-52
2023/10/02 12:25:04;;;;;;;12.07;5.68;;;;;;;23.45;40.42;65460.88;5071822;28;20261;-52
2023/10/02 12:27:32;;;;;;;8.52;4.72;;;;;;;23.24;40.33;65438.13;5072202;28;20689;-53
2023/10/02 12:29:59;;;;;;;10.25;5.10;;;;;;;23.09;40.73;65420.94;5070499;28;20701;-55
2023/10/02 12:32:27;;;;;;;8.52;4.60;;;;;;;22.71;40.67;65379.44;5070340;28;20212;-55
2023/10/02 12:34:53;;;;;;;9.98;4.40;;;;;;;22.08;41.77;65309.69;5071541;28;20201;-55
2023/10/02 12:37:20;;;;;;;10.35;5.55;;;;;;;21.84;42.15;65285.66;5071588;28;20212;-52
2023/10/02 12:39:47;;;;;;;8.05;4.88;;;;;;;22.03;43.65;65304.69;5071454;28;20215;-52
2023/10/02 12:42:13;;;;;;;13.35;5.90;;;;;;;22.16;43.40;65319.06;5071192;28;20299;-52
2023/10/02 12:44:41;;;;;;;7.18;4.80;;;;;;;22.13;42.87;65315.19;5071478;28;20258;-53
2023/10/02 12:47:07;;;;;;;9.35;5.28;;;;;;;22.54;41.40;65361.13;5070376;28;20724;-53
2023/10/02 12:49:38;;;;;;;8.65;5.13;;;;;;;23.10;41.59;65422.06;5071354;28;20201;-54
2023/10/02 12:52:05;;;;;;;8.38;5.35;;;;;;;22.97;40.54;65405.66;5070744;28;20749;-54
2023/10/02 12:54:31;;;;;;;9.00;4.70;;;;;;;22.88;40.48;65398.25;5071429;28;20208;-52
2023/10/02 12:56:57;;;;;;;8.30;4.15;;;;;;;22.14;41.40;65316.84;5071486;28;20270;-54